• Join FlightAware (Why Join?)
  • Login
  • US Flag 
03:28PM EDT


 

Airport Tracker/Info


-or-


 

Live Flight TrackerFlight Track Log ✈ USC105 ✈ 09-May-2013 ✈ KYIP - KLCK

Flight Track Log - Related Links

Times and Time Zones

All times are in EDT time to prevent confusion due to time zone crossing. See the USC105 flight status page for this flight to view local times or setup timezone preferences in your user account.

Time Position Orientation Groundspeed Altitude Reporting Facility
EDT Latitude Longitude Course Direction KTS MPH feet Rate Location/Type
07:00AM 41.5978 -83.3576 169° South  Level FlightAware Approximate
07:01AM 41.5486 -83.3452 169° South  Level FlightAware Approximate
07:02AM 41.4993 -83.3329 169° South  Level FlightAware Approximate
07:03AM 41.4501 -83.3205 169° South  Level FlightAware Approximate
07:04AM 41.4009 -83.3082 169° South  Level FlightAware Approximate
07:05AM 41.3517 -83.2959 169° South  Level FlightAware Approximate
07:05AM 41.3769 -83.4003 169° South 211 243 9,000  Level Cleveland Center
07:06AM 41.3024 -83.2836 169° South  Level FlightAware Approximate
07:06AM 41.3211 -83.3839 168° South 206 237 9,000  Level Cleveland Center
07:07AM 41.2532 -83.2714 169° South  Level FlightAware Approximate
07:07AM 41.2714 -83.3653 164° South 206 237 9,000  Level Cleveland Center
07:08AM 41.2040 -83.2591 169° South  Level FlightAware Approximate
07:08AM 41.2136 -83.3489 168° South 211 243 9,000  Level Cleveland Center
07:09AM 41.1547 -83.2469 169° South  Level FlightAware Approximate
07:09AM 41.1536 -83.3300 167° South 211 243 9,000  Level Cleveland Center
07:10AM 41.0975 -83.3139 168° South 206 237 9,000  Level Cleveland Center
07:11AM 41.0417 -83.2978 168° South 206 237 9,000  Level Cleveland Center
07:12AM 40.9858 -83.2789 166° South 206 237 9,000  Level Cleveland Center
07:13AM 40.9322 -83.2600 165° South 201 231 9,000  Level Cleveland Center
07:14AM 40.8761 -83.2469 170° South 201 231 9,000  Level Cleveland Center
07:15AM 40.8203 -83.2308 168° South 201 231 9,000  Level Cleveland Center
07:16AM 40.7664 -83.2150 167° South 201 231 9,000  Level Cleveland Center
07:17AM 40.7106 -83.1964 166° South 201 231 9,000  Level Cleveland Center
07:19AM 40.6398 -83.1749 167° South  Level Estimated
07:20AM 40.5494 -83.1478 167° South 206 237 9,100  Level Indianapolis Center
07:21AM 40.5083 -83.1356 167° South 208 239 9,100  Level Indianapolis Center
07:21AM 40.4939 -83.1319 169° South 205 236 9,100  Level Indianapolis Center
07:22AM 40.4531 -83.1181 165° South 204 235 9,100  Level Indianapolis Center
07:22AM 40.4375 -83.1142 169° South 206 237 9,100  Level Indianapolis Center
07:23AM 40.3997 -83.1036 168° South 201 231 9,100  Level Indianapolis Center
07:23AM 40.3739 -83.0958 167° South 200 230 9,100  Level Indianapolis Center
07:24AM 40.3442 -83.0889 170° South 201 231 9,100  Level Indianapolis Center
07:24AM 40.3181 -83.0797 165° South 202 232 9,100  Level Indianapolis Center
07:25AM 40.2825 -83.0706 169° South 196 226 9,100  Level Indianapolis Center
07:25AM 40.2658 -83.0636 162° South 194 223 9,100  Level Indianapolis Center
07:26AM 40.2358 -83.0517 163° South 191 220 9,100 -240 Level Indianapolis Center
07:26AM 40.2136 -83.0381 155° Southeast 197 227 8,900 -660 Descending Indianapolis Center
07:27AM 40.1875 -83.0214 154° Southeast 206 237 8,500 -900 Descending Indianapolis Center
07:27AM 40.1600 -83.0058 157° South 209 241 8,000 -900 Descending Indianapolis Center
07:28AM 40.1414 -82.9942 154° Southeast 216 249 7,700 -900 Descending Indianapolis Center
07:28AM 40.1053 -82.9714 154° Southeast 214 246 7,100 -900 Descending Indianapolis Center
07:29AM 40.0850 -82.9606 158° South 216 249 6,800 -840 Descending Indianapolis Center
07:29AM 40.0508 -82.9369 152° Southeast 215 247 6,300 -720 Descending Indianapolis Center
07:30AM 40.0303 -82.9325 171° South 209 241 6,100 -720 Descending Indianapolis Center
07:30AM 39.9944 -82.9242 170° South 202 232 5,600 -720 Descending Indianapolis Center
07:31AM 39.9767 -82.9208 172° South 197 227 5,400 -1,140 Descending Indianapolis Center
07:31AM 39.9381 -82.9089 167° South 203 234 4,500 -1,440 Descending Indianapolis Center
07:32AM 39.9217 -82.9008 159° South 216 249 4,000 -1,380 Descending Indianapolis Center
07:32AM 39.8811 -82.8786 157° South 216 249 3,100 -1,200 Descending Indianapolis Center
07:33AM 39.8583 -82.8775 178° South 212 244 2,700 -1,380 Descending Indianapolis Center
07:33AM 39.8397 -82.8953 216° Southwest 182 209 1,700 -1,620 Descending Indianapolis Center
07:34AM 39.8289 -82.9094 225° Southwest 116 133 1,100 -540 Descending Indianapolis Center
07:34AM 39.8117 -82.9331 226° Southwest 163 188 1,200 120 Climbing Indianapolis Center
07:36AM 39.8138 -82.9278 168° South  Level Estimated